Terminal Aerodrome Forecast
Issued by NWS

Home | Current Version | Previous Version | Text Only | Print | Product List | Glossary On
Versions: 1 2 3 4 5 6 7 8 9 10 11 12 13 14 15 16 17 18
000
FTAK31 PANC 231902 AAA
TAFADU
TAF AMD
PADU 231902Z 2319/2418 VRB05KT P6SM SCT025
     FM240300 10008KT P6SM SCT050
     FM241200 11008G15KT P6SM BKN025 OVC050=

USA.gov is the U.S. government's official web portal to all federal, state and local government web resources and services.